Time;durP1;ratioP1;P1;durP2;ratioP2;P2;SDS_P1;SDS_P2;PMS_P1;PMS_P2;Temp;Humidity;BMP_temperature;BMP_pressure;BME280_temperature;BME280_humidity;BME280_pressure;Samples;Min_cycle;Max_cycle;Signal;HPM_P1;HPM_P2
2022/02/14 00:00:22;;;;;;;4.07;1.77;;;9.90;99.90;;;;;;5037347;28;20108;-86
2022/02/14 00:02:48;;;;;;;6.18;2.20;;;9.90;99.90;;;;;;5042126;28;20032;-86
2022/02/14 00:05:14;;;;;;;6.75;2.45;;;9.80;99.90;;;;;;5052588;28;20381;-87
2022/02/14 00:07:40;;;;;;;4.57;2.03;;;9.90;99.90;;;;;;5043906;28;20039;-87
2022/02/14 00:10:07;;;;;;;4.30;2.20;;;9.90;99.90;;;;;;5043299;28;20123;-85
2022/02/14 00:12:34;;;;;;;3.97;2.10;;;9.90;99.90;;;;;;5057699;28;20068;-85
2022/02/14 00:15:03;;;;;;;5.88;2.50;;;10.20;99.90;;;;;;5057566;28;20025;-86
2022/02/14 00:17:29;;;;;;;6.15;2.08;;;9.80;99.90;;;;;;5040968;28;20121;-84
2022/02/14 00:19:55;;;;;;;8.52;2.90;;;9.80;99.90;;;;;;5058753;28;20466;-86
2022/02/14 00:22:21;;;;;;;4.75;1.92;;;9.80;99.90;;;;;;5030250;28;20136;-86
2022/02/14 00:24:51;;;;;;;4.60;1.80;;;9.80;99.90;;;;;;5038834;28;20048;-84
2022/02/14 00:27:19;;;;;;;7.45;2.20;;;9.80;99.90;;;;;;5039991;28;20036;-86
2022/02/14 00:29:45;;;;;;;10.40;3.05;;;9.70;99.90;;;;;;5057349;28;20489;-85
2022/02/14 00:32:11;;;;;;;7.28;2.50;;;9.80;99.90;;;;;;5040714;28;20390;-87
2022/02/14 00:34:38;;;;;;;6.28;2.05;;;9.80;99.90;;;;;;5042835;28;20051;-85
2022/02/14 00:37:04;;;;;;;3.92;1.92;;;9.70;99.90;;;;;;5038483;28;20029;-86
2022/02/14 00:39:30;;;;;;;6.07;2.05;;;9.80;99.90;;;;;;5039376;28;20035;-85
2022/02/14 00:41:56;;;;;;;5.35;2.10;;;9.80;99.90;;;;;;5043130;28;20114;-87
2022/02/14 00:44:21;;;;;;;6.40;2.50;;;9.90;99.90;;;;;;5041645;28;20029;-88
2022/02/14 00:46:47;;;;;;;5.43;2.00;;;9.90;99.90;;;;;;5040189;28;20029;-86
2022/02/14 00:49:13;;;;;;;4.93;1.98;;;9.90;99.90;;;;;;5039008;28;20482;-85
2022/02/14 00:51:39;;;;;;;4.45;2.10;;;;;;;;;;5041156;28;20497;-87
2022/02/14 00:54:05;;;;;;;5.68;2.10;;;9.70;99.90;;;;;;5038830;28;20032;-87
2022/02/14 00:56:31;;;;;;;4.13;1.80;;;9.60;99.90;;;;;;5038006;28;20092;-88
2022/02/14 00:58:57;;;;;;;4.63;1.90;;;9.90;99.90;;;;;;5042127;28;20532;-86
2022/02/14 01:01:22;;;;;;;5.97;1.95;;;10.80;99.90;;;;;;5057449;28;20104;-87
2022/02/14 01:03:48;;;;;;;5.50;1.98;;;;;;;;;;5040652;28;20029;-86
2022/02/14 01:06:15;;;;;;;5.97;2.33;;;9.60;99.90;;;;;;5034573;28;20044;-84
2022/02/14 01:08:40;;;;;;;5.63;2.42;;;7.90;99.90;;;;;;5035255;28;20047;-86
2022/02/14 01:11:06;;;;;;;5.28;2.40;;;9.70;99.90;;;;;;5035576;28;20544;-86
2022/02/14 01:13:32;;;;;;;3.70;1.90;;;9.60;99.90;;;;;;5038273;28;20021;-84
2022/02/14 01:15:58;;;;;;;5.22;2.22;;;9.60;99.90;;;;;;5039555;28;20108;-87
2022/02/14 01:18:24;;;;;;;4.10;2.00;;;;;;;;;;5035744;28;20032;-86
2022/02/14 01:20:50;;;;;;;4.78;2.03;;;9.60;99.90;;;;;;5040021;28;20036;-85
2022/02/14 01:23:16;;;;;;;4.85;2.05;;;9.50;99.90;;;;;;5036853;28;20033;-89
2022/02/14 01:25:42;;;;;;;6.10;2.00;;;;;;;;;;5050834;28;20089;-87
2022/02/14 01:28:08;;;;;;;4.03;2.30;;;9.60;99.90;;;;;;5036200;28;20033;-87
2022/02/14 01:30:33;;;;;;;6.05;2.25;;;9.50;99.90;;;;;;5040962;28;20482;-86
2022/02/14 01:33:00;;;;;;;5.50;1.88;;;9.50;99.90;;;;;;5039331;28;20049;-82
2022/02/14 01:35:27;;;;;;;6.93;3.38;;;10.50;99.90;;;;;;5060367;28;20056;-86
2022/02/14 01:37:53;;;;;;;6.28;2.00;;;9.50;99.90;;;;;;5058725;28;20027;-85
2022/02/14 01:40:19;;;;;;;6.63;2.10;;;9.50;99.90;;;;;;5041710;28;21034;-86
2022/02/14 01:42:45;;;;;;;7.53;2.08;;;9.80;99.90;;;;;;5038093;28;20024;-87
2022/02/14 01:45:12;;;;;;;4.03;2.22;;;9.50;99.90;;;;;;5037987;28;20549;-87
2022/02/14 01:47:40;;;;;;;6.30;2.15;;;9.50;99.90;;;;;;5042851;28;20021;-87
2022/02/14 01:50:07;;;;;;;4.07;1.85;;;10.60;99.90;;;;;;5040484;28;20072;-87
2022/02/14 01:52:35;;;;;;;4.43;2.40;;;;;;;;;;5041286;28;20059;-87
2022/02/14 01:55:03;;;;;;;4.20;1.95;;;9.50;99.90;;;;;;5037928;28;20025;-86
2022/02/14 01:57:28;;;;;;;7.22;2.22;;;9.50;99.90;;;;;;5021398;28;20040;-86
2022/02/14 01:59:55;;;;;;;5.93;2.10;;;;;;;;;;5059302;28;20017;-87
2022/02/14 02:02:21;;;;;;;5.50;2.17;;;9.50;99.90;;;;;;5037415;28;20047;-87
2022/02/14 02:04:46;;;;;;;7.90;2.40;;;9.50;99.90;;;;;;5041085;28;20029;-86
2022/02/14 02:07:14;;;;;;;4.93;1.85;;;11.20;99.90;;;;;;5040486;28;20055;-84
2022/02/14 02:09:42;;;;;;;4.72;1.92;;;9.50;99.90;;;;;;5040009;28;20029;-88
2022/02/14 02:12:24;;;;;;;4.70;1.80;;;10.40;99.90;;;;;;5035912;28;20477;-85
2022/02/14 02:14:55;;;;;;;3.60;1.98;;;9.40;99.90;;;;;;5036695;28;20117;-86
2022/02/14 02:17:23;;;;;;;4.70;2.20;;;9.30;99.90;;;;;;5041146;28;20029;-88
2022/02/14 02:19:49;;;;;;;6.15;2.00;;;11.30;99.90;;;;;;5040683;28;20428;-88
2022/02/14 02:22:14;;;;;;;5.00;2.35;;;9.40;99.90;;;;;;5034571;28;20062;-85
2022/02/14 02:25:00;;;;;;;6.13;2.30;;;9.40;99.90;;;;;;5039770;28;20042;-85
2022/02/14 02:27:27;;;;;;;6.07;2.53;;;9.30;99.90;;;;;;5048499;28;20049;-88
2022/02/14 02:29:58;;;;;;;5.25;2.20;;;10.40;99.90;;;;;;5035719;28;20535;-87
2022/02/14 02:32:24;;;;;;;;;;;9.20;99.90;;;;;;5057914;28;20060;-82
2022/02/14 02:34:51;;;;;;;3.78;1.63;;;9.20;99.90;;;;;;5037923;28;19913;-84
2022/02/14 02:37:17;;;;;;;6.93;2.92;;;9.20;99.90;;;;;;5039609;28;20029;-85
2022/02/14 02:39:44;;;;;;;5.90;2.15;;;9.30;99.90;;;;;;5036825;28;20021;-86
2022/02/14 02:42:12;;;;;;;5.82;2.08;;;9.20;99.90;;;;;;5036752;28;20029;-87
2022/02/14 02:44:38;;;;;;;5.13;2.10;;;10.90;99.90;;;;;;5039495;28;20032;-85
2022/02/14 02:47:06;;;;;;;6.68;1.88;;;9.30;99.90;;;;;;5038497;28;20036;-87
2022/02/14 02:49:33;;;;;;;5.82;2.15;;;9.40;99.90;;;;;;5038300;28;20075;-87
2022/02/14 02:51:59;;;;;;;5.75;1.88;;;9.40;99.90;;;;;;5036723;28;20021;-82
2022/02/14 02:54:26;;;;;;;7.13;2.10;;;9.40;99.90;;;;;;5085714;23;20518;-89
2022/02/14 02:56:53;;;;;;;3.90;2.15;;;9.40;99.90;;;;;;5056651;28;20029;-89
2022/02/14 02:59:20;;;;;;;3.72;1.95;;;9.40;99.90;;;;;;5044965;28;20037;-87
2022/02/14 03:01:46;;;;;;;6.10;1.90;;;;;;;;;;5071900;28;20041;-86
2022/02/14 03:04:13;;;;;;;5.00;1.90;;;9.40;99.90;;;;;;5056404;28;20089;-88
2022/02/14 03:06:39;;;;;;;4.28;2.00;;;;;;;;;;5055682;28;20102;-86
2022/02/14 03:09:06;;;;;;;7.20;2.50;;;9.40;99.90;;;;;;5051145;28;20029;-88
2022/02/14 03:11:33;;;;;;;5.38;2.00;;;12.10;99.90;;;;;;5055628;28;20033;-89
2022/02/14 03:13:59;;;;;;;8.10;2.30;;;;;;;;;;5069805;28;20033;-88
2022/02/14 03:16:25;;;;;;;9.80;2.92;;;9.30;99.90;;;;;;5054069;28;20024;-89
2022/02/14 03:18:51;;;;;;;5.13;1.90;;;9.30;99.90;;;;;;5040648;28;20021;-88
2022/02/14 03:21:20;;;;;;;6.85;1.83;;;9.30;99.90;;;;;;5052703;28;20031;-88
2022/02/14 03:23:51;;;;;;;4.97;1.92;;;9.30;99.90;;;;;;5073634;28;20021;-89
2022/02/14 03:26:17;;;;;;;;;;;12.70;99.90;;;;;;5044006;28;20044;-89
2022/02/14 03:28:48;;;;;;;7.13;2.50;;;9.20;99.90;;;;;;5063392;28;19893;-88
2022/02/14 03:31:14;;;;;;;;;;;12.50;99.90;;;;;;5061229;28;20029;-87
2022/02/14 03:33:40;;;;;;;7.05;2.20;;;9.30;99.90;;;;;;5063785;28;19919;-89
2022/02/14 03:36:07;;;;;;;5.30;2.03;;;9.20;99.90;;;;;;5059367;28;20163;-86
2022/02/14 03:38:34;;;;;;;7.05;2.03;;;9.20;99.90;;;;;;5056664;28;20120;-87
2022/02/14 03:41:00;;;;;;;4.30;2.08;;;;;;;;;;5058244;28;20033;-87
2022/02/14 03:43:25;;;;;;;6.03;2.10;;;9.30;99.90;;;;;;5059951;28;20013;-87
2022/02/14 03:45:51;;;;;;;7.60;2.35;;;;;;;;;;5057926;28;20144;-87
2022/02/14 03:48:17;;;;;;;5.68;1.92;;;;;;;;;;5052185;28;20028;-87
2022/02/14 03:50:43;;;;;;;7.20;2.78;;;;;;;;;;5056528;28;20043;-87
2022/02/14 03:53:09;;;;;;;5.50;1.70;;;;;;;;;;5059165;28;20035;-89
2022/02/14 03:55:36;;;;;;;6.05;2.35;;;;;;;;;;5062118;28;20028;-89
2022/02/14 03:58:02;;;;;;;6.80;2.47;;;9.30;99.90;;;;;;5061097;28;20029;-87
2022/02/14 04:00:28;;;;;;;8.73;2.05;;;9.20;99.90;;;;;;5076596;28;20028;-89
2022/02/14 04:02:54;;;;;;;4.18;2.00;;;;;;;;;;5061280;28;20024;-85
2022/02/14 04:05:20;;;;;;;8.90;2.30;;;9.20;99.90;;;;;;5056461;28;20153;-88
2022/02/14 04:07:47;;;;;;;5.03;2.17;;;9.00;99.90;;;;;;5064519;28;20036;-89
2022/02/14 04:10:15;;;;;;;10.27;2.30;;;9.30;99.90;;;;;;5040908;28;20048;-87
2022/02/14 04:12:41;;;;;;;7.45;1.77;;;;;;;;;;5061103;28;20029;-89
2022/02/14 04:15:08;;;;;;;5.10;2.10;;;9.20;99.90;;;;;;5058511;28;20021;-88
2022/02/14 04:17:34;;;;;;;7.35;2.10;;;;;;;;;;5063250;28;20017;-87
2022/02/14 04:20:00;;;;;;;9.52;2.20;;;9.30;99.90;;;;;;5062711;28;20021;-88
2022/02/14 04:22:26;;;;;;;6.88;2.17;;;;;;;;;;5057909;28;20020;-87
2022/02/14 04:24:52;;;;;;;4.90;2.17;;;9.30;99.90;;;;;;5058570;28;20016;-88
2022/02/14 04:27:18;;;;;;;4.13;1.90;;;;;;;;;;5075621;28;20020;-86
2022/02/14 04:29:44;;;;;;;8.02;2.05;;;9.30;99.90;;;;;;5075484;28;21931;-88
2022/02/14 04:32:10;;;;;;;7.90;2.08;;;;;;;;;;5073892;28;20033;-87
2022/02/14 04:34:37;;;;;;;5.25;2.30;;;;;;;;;;5058332;28;20029;-88
2022/02/14 04:37:03;;;;;;;6.20;2.10;;;;;;;;;;5057219;28;20045;-88
2022/02/14 04:39:28;;;;;;;5.85;2.03;;;9.40;99.90;;;;;;5057862;28;20033;-87
2022/02/14 04:41:58;;;;;;;6.70;2.10;;;;;;;;;;5056997;28;20021;-87
2022/02/14 04:44:24;;;;;;;7.93;2.20;;;;;;;;;;5055379;28;20029;-88
2022/02/14 04:46:50;;;;;;;4.40;1.73;;;;;;;;;;5055232;28;20072;-88
2022/02/14 04:49:16;;;;;;;5.63;2.15;;;;;;;;;;5057858;28;20033;-87
2022/02/14 04:51:42;;;;;;;5.75;1.70;;;;;;;;;;5061277;28;20033;-86
2022/02/14 04:54:08;;;;;;;10.32;2.50;;;;;;;;;;5056066;28;20013;-87
2022/02/14 04:56:34;;;;;;;5.03;1.92;;;;;;;;;;5075207;28;20055;-88
2022/02/14 04:59:00;;;;;;;6.03;1.90;;;9.60;99.90;;;;;;5059077;28;20032;-88
2022/02/14 05:01:26;;;;;;;7.95;2.10;;;;;;;;;;5059528;28;20021;-87
2022/02/14 05:03:52;;;;;;;5.22;1.92;;;;;;;;;;5059919;28;20047;-88
2022/02/14 05:06:19;;;;;;;7.15;2.03;;;;;;;;;;5075495;28;20071;-89
2022/02/14 05:08:45;;;;;;;6.50;2.00;;;;;;;;;;5064367;28;20537;-85
2022/02/14 05:11:12;;;;;;;4.90;2.13;;;9.70;99.90;;;;;;5046247;28;20108;-89
2022/02/14 05:13:40;;;;;;;5.20;2.15;;;;;;;;;;5057907;28;20021;-89
2022/02/14 05:16:06;;;;;;;7.93;2.83;;;;;;;;;;5058818;28;20021;-87
2022/02/14 05:18:32;;;;;;;6.18;2.10;;;;;;;;;;5054064;28;20033;-89
2022/02/14 05:20:58;;;;;;;7.40;2.03;;;9.70;99.90;;;;;;5075250;28;20032;-88
2022/02/14 05:23:24;;;;;;;7.05;2.65;;;;;;;;;;5059086;28;20056;-89
2022/02/14 05:25:50;;;;;;;8.88;2.75;;;;;;;;;;5057034;28;20036;-89
2022/02/14 05:28:16;;;;;;;6.30;2.38;;;9.80;99.90;;;;;;5060565;28;20491;-89
2022/02/14 05:30:42;;;;;;;6.40;2.28;;;;;;;;;;5055546;28;20036;-88
2022/02/14 05:33:08;;;;;;;5.82;2.08;;;;;;;;;;5054709;28;20060;-88
2022/02/14 05:35:34;;;;;;;8.38;2.95;;;;;;;;;;5073325;28;20036;-87
2022/02/14 05:38:00;;;;;;;4.70;2.00;;;;;;;;;;5067191;28;20009;-89
2022/02/14 05:40:27;;;;;;;6.60;2.05;;;9.80;99.90;;;;;;5059288;28;20053;-87
2022/02/14 05:42:53;;;;;;;6.28;2.80;;;13.60;99.90;;;;;;5055166;28;20032;-86
2022/02/14 05:45:18;;;;;;;7.47;2.15;;;9.80;99.90;;;;;;5050509;28;20029;-87
2022/02/14 05:47:44;;;;;;;8.55;2.42;;;;;;;;;;5043001;28;20036;-87
2022/02/14 05:50:10;;;;;;;5.57;2.30;;;9.80;99.90;;;;;;5051176;28;20043;-87
2022/02/14 05:52:36;;;;;;;10.88;2.10;;;11.80;99.90;;;;;;5049716;28;20029;-88
2022/02/14 05:55:03;;;;;;;5.05;2.00;;;;;;;;;;5050755;28;20071;-86
2022/02/14 05:57:29;;;;;;;7.50;2.13;;;;;;;;;;5028773;28;20033;-89
2022/02/14 05:59:55;;;;;;;7.95;2.10;;;;;;;;;;5044120;28;20020;-87
2022/02/14 06:02:21;;;;;;;7.82;2.10;;;;;;;;;;5047380;28;20105;-86
2022/02/14 06:04:47;;;;;;;5.53;2.20;;;9.80;99.90;;;;;;5044740;28;20128;-88
2022/02/14 06:07:13;;;;;;;9.48;2.00;;;;;;;;;;5063102;28;20502;-85
2022/02/14 06:09:40;;;;;;;9.02;2.80;;;9.80;99.90;;;;;;5048869;28;20061;-85
2022/02/14 06:12:06;;;;;;;6.68;2.00;;;;;;;;;;5049227;28;20025;-85
2022/02/14 06:14:32;;;;;;;10.35;2.13;;;9.80;99.90;;;;;;5030542;28;20021;-86
2022/02/14 06:16:59;;;;;;;6.53;1.98;;;;;;;;;;5031158;28;20056;-86
2022/02/14 06:19:25;;;;;;;6.63;1.98;;;;;;;;;;5035703;28;20025;-84
2022/02/14 06:21:50;;;;;;;7.45;2.70;;;9.80;99.90;;;;;;5031194;28;20058;-86
2022/02/14 06:24:17;;;;;;;5.78;2.15;;;9.90;99.90;;;;;;5036618;28;20029;-86
2022/02/14 06:26:43;;;;;;;9.20;2.15;;;;;;;;;;5033865;28;20097;-84
2022/02/14 06:29:10;;;;;;;6.55;2.45;;;;;;;;;;5032159;28;20056;-86
2022/02/14 06:31:36;;;;;;;5.97;2.10;;;;;;;;;;5035450;28;20033;-83
2022/02/14 06:34:01;;;;;;;9.68;2.15;;;9.80;99.90;;;;;;5032990;28;20033;-87
2022/02/14 06:36:28;;;;;;;4.57;1.98;;;;;;;;;;5050066;28;20096;-85
2022/02/14 06:38:55;;;;;;;4.93;2.10;;;9.80;99.90;;;;;;5047131;28;20037;-84
2022/02/14 06:41:21;;;;;;;8.05;2.30;;;9.90;99.90;;;;;;5029773;28;20029;-86
2022/02/14 06:43:47;;;;;;;8.45;2.00;;;9.80;99.90;;;;;;5027017;28;20028;-86
2022/02/14 06:46:13;;;;;;;6.65;1.90;;;;;;;;;;5034890;28;20036;-88
2022/02/14 06:48:40;;;;;;;6.57;1.88;;;;;;;;;;5048558;28;20139;-84
2022/02/14 06:51:06;;;;;;;6.07;2.20;;;;;;;;;;5049204;28;20576;-84
2022/02/14 06:53:32;;;;;;;5.18;2.05;;;;;;;;;;5058052;28;20052;-85
2022/02/14 06:56:00;;;;;;;8.18;2.28;;;;;;;;;;5038638;28;20033;-85
2022/02/14 06:58:26;;;;;;;6.38;2.15;;;9.80;99.90;;;;;;5040382;28;20021;-86
2022/02/14 07:00:53;;;;;;;7.28;2.47;;;;;;;;;;5043778;28;20029;-88
2022/02/14 07:03:19;;;;;;;7.10;2.15;;;;;;;;;;5039406;28;20034;-85
2022/02/14 07:05:45;;;;;;;4.63;1.80;;;;;;;;;;5058659;28;20401;-87
2022/02/14 07:08:11;;;;;;;6.97;2.25;;;;;;;;;;5058413;28;20434;-85
2022/02/14 07:10:37;;;;;;;3.88;1.85;;;;;;;;;;5041359;28;20029;-85
2022/02/14 07:13:03;;;;;;;6.60;2.20;;;;;;;;;;5068749;28;20021;-87
2022/02/14 07:15:29;;;;;;;7.18;2.22;;;9.70;99.90;;;;;;5047636;28;20112;-84
2022/02/14 07:17:55;;;;;;;5.60;1.92;;;;;;;;;;5065964;28;20025;-85
2022/02/14 07:20:22;;;;;;;9.18;2.22;;;;;;;;;;5061598;28;20131;-85
2022/02/14 07:22:48;;;;;;;4.93;2.50;;;;;;;;;;5062597;28;20029;-87
2022/02/14 07:25:15;;;;;;;5.43;2.45;;;;;;;;;;5044034;28;20365;-87
2022/02/14 07:27:41;;;;;;;4.95;1.88;;;;;;;;;;5045931;28;20034;-87
2022/02/14 07:30:12;;;;;;;5.63;2.15;;;9.60;99.90;;;;;;5057700;28;20028;-85
2022/02/14 07:32:39;;;;;;;5.45;1.90;;;;;;;;;;5035246;28;20093;-84
2022/02/14 07:35:05;;;;;;;7.05;3.17;;;9.70;99.90;;;;;;5036231;28;20055;-85
2022/02/14 07:37:32;;;;;;;6.65;2.00;;;9.70;99.90;;;;;;5022801;28;20030;-86
2022/02/14 07:39:58;;;;;;;10.05;2.00;;;;;;;;;;5042994;28;20014;-87
2022/02/14 07:42:25;;;;;;;7.72;2.30;;;9.70;99.90;;;;;;5060958;28;20033;-85
2022/02/14 07:44:50;;;;;;;3.33;1.95;;;9.70;99.90;;;;;;5034179;28;20394;-84
2022/02/14 07:47:17;;;;;;;6.18;2.40;;;;;;;;;;5036426;28;20228;-87
2022/02/14 07:49:45;;;;;;;7.38;2.00;;;9.80;99.90;;;;;;5035925;28;20045;-85
2022/02/14 07:52:11;;;;;;;6.72;2.10;;;9.80;99.90;;;;;;5061368;28;20029;-84
2022/02/14 07:54:37;;;;;;;7.53;2.47;;;;;;;;;;5044022;28;20029;-84
2022/02/14 07:57:03;;;;;;;5.25;2.38;;;;;;;;;;5037184;28;20135;-85
2022/02/14 07:59:29;;;;;;;7.93;1.88;;;;;;;;;;5068016;28;20037;-83
2022/02/14 08:01:55;;;;;;;5.63;2.10;;;9.80;99.90;;;;;;5046190;28;20060;-85
2022/02/14 08:04:21;;;;;;;4.88;2.05;;;9.80;99.90;;;;;;5042880;28;20033;-83
2022/02/14 08:06:47;;;;;;;5.80;1.88;;;;;;;;;;5046380;28;20033;-85
2022/02/14 08:09:13;;;;;;;6.05;2.47;;;9.90;99.90;;;;;;5052514;28;20033;-87
2022/02/14 08:11:39;;;;;;;7.65;2.47;;;9.90;99.90;;;;;;5059344;28;20119;-85
2022/02/14 08:14:05;;;;;;;5.63;2.03;;;;;;;;;;5047757;28;20032;-87
2022/02/14 08:16:33;;;;;;;5.97;2.25;;;;;;;;;;5059634;28;20021;-86
2022/02/14 08:19:02;;;;;;;9.43;2.83;;;9.90;99.90;;;;;;5035029;28;20446;-85
2022/02/14 08:21:29;;;;;;;4.25;1.83;;;9.90;99.90;;;;;;5051809;28;20478;-87
2022/02/14 08:23:55;;;;;;;6.57;2.10;;;10.00;99.90;;;;;;5056762;28;20122;-85
2022/02/14 08:26:21;;;;;;;7.47;1.95;;;13.40;99.90;;;;;;5046639;28;20035;-86
2022/02/14 08:28:47;;;;;;;4.85;1.92;;;;;;;;;;5045020;28;20093;-86
2022/02/14 08:31:13;;;;;;;7.15;2.40;;;10.00;99.90;;;;;;5038066;28;20033;-84
2022/02/14 08:33:41;;;;;;;5.32;1.85;;;10.60;99.90;;;;;;5058582;28;20027;-85
2022/02/14 08:36:07;;;;;;;6.43;2.20;;;;;;;;;;5042133;28;20024;-85
2022/02/14 08:38:35;;;;;;;7.43;2.05;;;10.20;99.90;;;;;;5057245;28;20046;-87
2022/02/14 08:41:12;;;;;;;4.10;2.10;;;10.20;99.90;;;;;;5060182;28;20033;-82
2022/02/14 08:43:38;;;;;;;2.78;1.55;;;;;;;;;;5058857;28;20021;-84
2022/02/14 08:46:07;;;;;;;5.97;1.80;;;10.20;99.90;;;;;;5057724;28;20016;-87
2022/02/14 08:48:36;;;;;;;6.32;2.38;;;10.20;99.90;;;;;;5055637;28;20025;-86
2022/02/14 08:51:05;;;;;;;5.95;1.88;;;8.90;99.90;;;;;;5050480;28;20045;-86
2022/02/14 08:53:38;;;;;;;5.47;2.20;;;10.30;99.90;;;;;;5048068;28;20028;-85
2022/02/14 08:56:06;;;;;;;6.10;1.90;;;10.30;99.90;;;;;;5049443;28;20036;-85
2022/02/14 08:58:33;;;;;;;7.28;2.50;;;10.40;99.90;;;;;;5077613;28;20059;-88
2022/02/14 09:01:02;;;;;;;4.35;1.85;;;10.40;99.90;;;;;;5049113;28;20115;-86
2022/02/14 09:03:28;;;;;;;4.80;1.75;;;;;;;;;;5032284;28;20029;-85
2022/02/14 09:05:54;;;;;;;6.57;2.08;;;;;;;;;;5056903;28;20033;-87
2022/02/14 09:08:22;;;;;;;4.35;1.70;;;;;;;;;;5043995;28;20024;-89
2022/02/14 09:11:16;;;;;;;5.65;1.80;;;10.50;99.90;;;;;;5068668;28;20045;-86
2022/02/14 09:13:42;;;;;;;4.50;1.83;;;;;;;;;;5069587;28;20032;-84
2022/02/14 09:16:10;;;;;;;4.47;1.77;;;10.60;99.90;;;;;;5056526;28;20021;-85
2022/02/14 09:19:05;;;;;;;4.20;1.75;;;10.60;99.90;;;;;;5074270;28;20107;-83
2022/02/14 09:21:31;;;;;;;6.47;2.70;;;;;;;;;;5047964;28;20036;-87
2022/02/14 09:23:57;;;;;;;6.25;1.90;;;;;;;;;;5050721;28;20560;-87
2022/02/14 09:26:29;;;;;;;5.93;2.10;;;10.80;99.90;;;;;;5049460;28;20064;-87
2022/02/14 09:29:08;;;;;;;4.03;1.70;;;;;;;;;;5064172;28;20010;-83
2022/02/14 09:34:19;;;;;;;7.10;2.30;;;11.10;99.90;;;;;;5260236;22;20057;-81
2022/02/14 09:36:45;;;;;;;3.85;1.55;;;;;;;;;;5044364;28;20477;-79
2022/02/14 09:39:12;;;;;;;6.53;2.20;;;;;;;;;;5028813;28;20032;-79
2022/02/14 09:41:38;;;;;;;6.68;1.70;;;;;;;;;;5033801;28;20025;-79
2022/02/14 09:44:07;;;;;;;5.05;1.52;;;11.20;99.90;;;;;;5032308;28;20017;-79
2022/02/14 09:46:39;;;;;;;3.63;1.73;;;11.10;99.90;;;;;;5030028;28;20025;-81
2022/02/14 09:49:06;;;;;;;3.15;1.60;;;;;;;;;;5021291;28;20037;-78
2022/02/14 09:51:34;;;;;;;8.55;3.38;;;;;;;;;;5041251;28;20033;-80
2022/02/14 09:54:00;;;;;;;4.72;1.80;;;;;;;;;;5044493;28;20028;-80
2022/02/14 09:56:29;;;;;;;4.07;1.73;;;;;;;;;;5030790;28;20021;-79
2022/02/14 09:58:56;;;;;;;5.05;1.77;;;;;;;;;;5027289;28;20018;-79
2022/02/14 10:01:23;;;;;;;4.90;1.60;;;;;;;;;;5042749;28;20118;-78
2022/02/14 10:04:00;;;;;;;7.22;2.30;;;11.30;99.90;;;;;;5026668;28;20303;-81
2022/02/14 10:06:32;;;;;;;3.88;1.80;;;11.30;99.90;;;;;;5025320;28;20052;-78
2022/02/14 10:09:24;;;;;;;3.78;1.70;;;11.40;99.90;;;;;;5033745;28;20029;-81
2022/02/14 10:12:10;;;;;;;5.43;1.77;;;11.40;99.90;;;;;;5038422;28;20041;-80
2022/02/14 10:14:36;;;;;;;4.35;1.38;;;;;;;;;;5038381;28;20040;-80
2022/02/14 10:17:08;;;;;;;5.50;1.80;;;11.30;99.90;;;;;;5017663;28;20063;-78
2022/02/14 10:19:39;;;;;;;3.60;1.45;;;11.30;99.90;;;;;;5019050;28;20030;-79
2022/02/14 10:22:11;;;;;;;5.32;1.70;;;;;;;;;;5035904;28;20056;-78
2022/02/14 10:24:42;;;;;;;2.35;1.45;;;11.20;99.90;;;;;;5020131;28;20099;-78
2022/02/14 10:27:09;;;;;;;3.72;1.40;;;;;;;;;;5035889;28;20132;-78
2022/02/14 10:29:35;;;;;;;2.45;1.30;;;;;;;;;;5009450;28;20030;-78
2022/02/14 10:32:16;;;;;;;5.95;2.47;;;11.20;99.90;;;;;;5009181;28;20121;-79
2022/02/14 10:34:44;;;;;;;4.95;1.80;;;11.20;99.90;;;;;;5018521;28;20029;-78
2022/02/14 10:37:15;;;;;;;3.85;1.40;;;11.20;99.90;;;;;;5014378;28;20025;-79
2022/02/14 10:39:43;;;;;;;5.57;1.67;;;11.30;99.90;;;;;;5013208;28;20021;-78
2022/02/14 10:42:11;;;;;;;5.13;1.77;;;11.30;99.90;;;;;;5014355;28;20454;-81
2022/02/14 10:47:30;;;;;;;5.47;1.70;;;11.20;99.90;;;;;;5034188;28;20039;-77
2022/02/14 10:50:23;;;;;;;6.82;1.52;;;11.20;99.90;;;;;;5034588;28;20037;-80
2022/02/14 10:52:55;;;;;;;2.65;1.50;;;11.20;99.90;;;;;;5022398;28;20041;-79
2022/02/14 10:55:26;;;;;;;4.10;1.67;;;11.20;99.90;;;;;;5030536;28;20056;-79
2022/02/14 10:57:52;;;;;;;3.20;1.42;;;13.10;99.90;;;;;;5046924;28;20029;-80
2022/02/14 11:00:21;;;;;;;3.72;1.60;;;11.20;99.90;;;;;;5048028;28;20037;-80
2022/02/14 11:02:52;;;;;;;4.75;1.52;;;11.20;99.90;;;;;;5033530;28;20030;-78
2022/02/14 11:05:20;;;;;;;3.17;1.45;;;11.20;99.90;;;;;;5045853;28;20026;-78
2022/02/14 11:07:46;;;;;;;15.15;2.95;;;11.30;99.90;;;;;;5032277;28;20022;-80
2022/02/14 11:10:15;;;;;;;4.10;1.42;;;11.90;99.90;;;;;;5030336;28;20110;-80
2022/02/14 11:12:47;;;;;;;5.68;1.60;;;11.30;99.90;;;;;;5048596;28;20024;-78
2022/02/14 11:15:13;;;;;;;4.47;2.15;;;11.30;99.90;;;;;;5018201;28;20378;-76
2022/02/14 11:17:46;;;;;;;4.65;1.50;;;11.20;99.90;;;;;;5020611;28;20025;-78
2022/02/14 11:20:13;;;;;;;3.30;1.70;;;11.20;99.90;;;;;;5014234;28;20022;-77
2022/02/14 11:22:49;;;;;;;3.47;1.63;;;11.10;99.90;;;;;;5020992;28;20049;-79
2022/02/14 11:25:21;;;;;;;3.28;1.75;;;;;;;;;;5037495;23;20102;-79
2022/02/14 11:28:09;;;;;;;5.38;2.30;;;10.90;99.90;;;;;;5012976;28;20025;-79
2022/02/14 11:30:36;;;;;;;3.63;2.10;;;;;;;;;;5027584;28;20382;-78
2022/02/14 11:33:08;;;;;;;6.10;1.90;;;10.80;99.90;;;;;;5012006;28;20030;-81
2022/02/14 11:35:35;;;;;;;1.35;0.85;;;;;;;;;;4991391;28;20025;-77
2022/02/14 11:38:01;;;;;;;1.90;1.05;;;;;;;;;;4985130;28;20114;-77
2022/02/14 11:40:39;;;;;;;2.45;1.00;;;10.70;99.90;;;;;;4990843;28;20116;-78
2022/02/14 11:43:24;;;;;;;4.43;1.27;;;10.70;99.90;;;;;;4987997;28;20023;-77
2022/02/14 11:46:15;;;;;;;3.92;1.45;;;;;;;;;;4987447;28;20018;-77
2022/02/14 11:48:41;;;;;;;;;;;10.70;99.90;;;;;;4986170;28;20062;-78
2022/02/14 11:51:13;;;;;;;4.55;1.70;;;10.70;99.90;;;;;;5008135;28;19922;-77
2022/02/14 11:53:45;;;;;;;2.13;1.02;;;10.60;99.90;;;;;;5009204;28;20026;-78
2022/02/14 11:56:24;;;;;;;5.38;1.10;;;;;;;;;;4989408;28;20050;-77
2022/02/14 11:59:12;;;;;;;2.30;1.05;;;10.60;99.90;;;;;;4994241;28;20490;-78
2022/02/14 12:01:50;;;;;;;2.65;1.00;;;10.60;99.90;;;;;;5007331;28;20053;-77
2022/02/14 12:09:57;;;;;;;;;;;10.50;99.90;;;;;;4993895;28;20023;-77
2022/02/14 12:21:14;;;;;;;2.40;1.30;;;10.50;99.90;;;;;;4994890;28;20066;-77
2022/02/14 12:23:45;;;;;;;4.15;1.40;;;10.70;99.90;;;;;;4995650;28;20053;-78
2022/02/14 12:26:17;;;;;;;6.00;1.77;;;10.60;99.90;;;;;;5014121;28;20045;-78
2022/02/14 12:28:46;;;;;;;2.90;1.10;;;10.70;99.90;;;;;;5010896;28;20077;-77
2022/02/14 12:31:12;;;;;;;3.50;1.17;;;10.70;99.90;;;;;;4996673;28;20057;-78
2022/02/14 12:33:38;;;;;;;5.93;1.38;;;10.70;99.90;;;;;;5016415;28;20018;-77
2022/02/14 12:36:08;;;;;;;5.78;1.63;;;10.90;99.90;;;;;;4998870;28;20113;-77
2022/02/14 12:38:37;;;;;;;5.28;1.50;;;11.20;99.90;;;;;;5016692;28;20057;-77
2022/02/14 12:41:06;;;;;;;5.05;1.73;;;11.50;99.90;;;;;;5001719;28;20030;-78
2022/02/14 12:43:49;;;;;;;2.30;0.90;;;11.70;99.90;;;;;;5010362;28;20046;-79
2022/02/14 12:46:18;;;;;;;4.68;2.08;;;11.80;99.90;;;;;;5018749;28;20038;-78
2022/02/14 12:48:46;;;;;;;2.20;0.80;;;11.80;99.90;;;;;;5012314;28;20033;-79
2022/02/14 12:51:26;;;;;;;3.88;1.13;;;11.70;99.90;;;;;;5023457;28;20034;-78
2022/02/14 12:54:07;;;;;;;2.70;1.05;;;11.50;99.90;;;;;;4998354;28;20037;-78
2022/02/14 12:56:34;;;;;;;;;;;11.40;99.90;;;;;;5017748;28;20027;-79
2022/02/14 12:59:01;;;;;;;3.38;0.90;;;;;;;;;;5001842;28;20323;-79
2022/02/14 13:01:33;;;;;;;2.15;0.77;;;11.40;99.90;;;;;;5014226;28;20031;-78
2022/02/14 13:04:05;;;;;;;3.30;0.80;;;11.30;99.90;;;;;;5000455;28;20030;-78
2022/02/14 13:06:37;;;;;;;3.97;0.95;;;;;;;;;;5002959;28;20034;-79
2022/02/14 13:09:34;;;;;;;1.85;0.80;;;11.30;99.90;;;;;;5019525;28;20450;-78
2022/02/14 13:12:17;;;;;;;6.72;1.30;;;11.30;99.90;;;;;;4997013;28;20027;-78
2022/02/14 13:14:45;;;;;;;6.00;1.30;;;11.30;99.90;;;;;;5000561;28;20030;-79
2022/02/14 13:17:18;;;;;;;5.03;1.50;;;11.30;99.90;;;;;;5002591;28;20129;-78
2022/02/14 13:20:02;;;;;;;4.30;1.48;;;11.30;99.90;;;;;;5001792;28;20031;-79
2022/02/14 13:22:38;;;;;;;5.53;1.27;;;11.40;99.90;;;;;;5000212;28;20026;-78
2022/02/14 13:25:25;;;;;;;4.35;0.98;;;11.30;99.90;;;;;;5007676;28;20034;-78
2022/02/14 13:28:13;;;;;;;4.28;1.10;;;11.50;99.90;;;;;;5022176;28;20030;-78
2022/02/14 13:30:45;;;;;;;3.17;0.95;;;11.50;99.90;;;;;;5019390;28;20068;-78
2022/02/14 13:33:27;;;;;;;2.25;1.05;;;11.40;99.90;;;;;;5024557;28;20026;-78
2022/02/14 13:36:01;;;;;;;3.88;1.25;;;11.40;99.90;;;;;;5022248;28;20018;-79
2022/02/14 13:38:40;;;;;;;4.82;1.13;;;11.30;99.90;;;;;;5027565;28;20390;-79
2022/02/14 13:41:10;;;;;;;4.50;1.48;;;11.40;99.90;;;;;;5021471;28;20029;-78
2022/02/14 13:43:39;;;;;;;6.57;1.50;;;;;;;;;;5026020;28;20030;-78
2022/02/14 13:46:16;;;;;;;5.50;1.23;;;11.50;99.90;;;;;;5018171;28;20053;-78
2022/02/14 13:48:52;;;;;;;5.85;1.00;;;;;;;;;;5019034;28;20081;-79
2022/02/14 13:51:24;;;;;;;5.53;1.00;;;11.40;99.90;;;;;;5040965;28;20120;-80
2022/02/14 13:53:59;;;;;;;5.07;1.05;;;;;;;;;;5021858;28;20030;-78
2022/02/14 13:56:29;;;;;;;2.17;0.93;;;11.40;99.90;;;;;;5035092;28;20029;-78